Time;durP1;ratioP1;P1;durP2;ratioP2;P2;SDS_P1;SDS_P2;PMS_P1;PMS_P2;Temp;Humidity;BMP_temperature;BMP_pressure;BME280_temperature;BME280_humidity;BME280_pressure;Samples;Min_cycle;Max_cycle;Signal;HPM_P1;HPM_P2
2021/07/22 00:00:36;;;;;;;9.80;8.90;;;16.40;60.50;;;;;;4983076;28;20503;-77
2021/07/22 00:03:04;;;;;;;9.37;8.53;;;16.20;60.70;;;;;;4988293;28;20579;-77
2021/07/22 00:05:31;;;;;;;9.60;8.70;;;16.10;60.90;;;;;;4986138;28;20465;-78
2021/07/22 00:08:01;;;;;;;9.83;8.93;;;16.00;61.20;;;;;;4989765;28;20472;-78
2021/07/22 00:10:28;;;;;;;10.60;9.50;;;16.00;61.50;;;;;;4991960;28;20451;-78
2021/07/22 00:12:55;;;;;;;8.77;7.87;;;15.90;61.50;;;;;;4989474;28;21129;-78
2021/07/22 00:15:22;;;;;;;9.87;8.90;;;15.90;61.70;;;;;;4976259;28;20476;-78
2021/07/22 00:17:48;;;;;;;9.87;8.97;;;15.80;62.00;;;;;;4998598;28;20532;-78
2021/07/22 00:20:16;;;;;;;14.60;9.67;;;15.70;62.20;;;;;;5006112;28;20457;-78
2021/07/22 00:22:42;;;;;;;10.83;9.73;;;15.70;62.40;;;;;;5007317;28;20449;-78
2021/07/22 00:25:11;;;;;;;10.87;9.90;;;15.60;62.70;;;;;;4991863;28;20912;-79
2021/07/22 00:27:38;;;;;;;11.17;9.77;;;15.50;62.60;;;;;;4992061;28;20450;-78
2021/07/22 00:30:06;;;;;;;10.20;9.30;;;15.60;62.80;;;;;;4989536;28;20459;-78
2021/07/22 00:32:34;;;;;;;9.90;9.00;;;15.40;63.00;;;;;;4995702;28;20560;-79
2021/07/22 00:35:00;;;;;;;9.93;9.03;;;15.30;63.20;;;;;;5005821;28;20564;-79
2021/07/22 00:37:27;;;;;;;10.57;9.67;;;15.30;63.40;;;;;;5009248;28;20449;-78
2021/07/22 00:39:54;;;;;;;10.23;9.27;;;15.20;63.60;;;;;;4992392;28;20542;-77
2021/07/22 00:42:22;;;;;;;9.80;8.77;;;15.30;63.70;;;;;;4990607;28;20458;-77
2021/07/22 00:44:49;;;;;;;9.83;8.77;;;15.20;63.90;;;;;;4992550;28;20444;-77
2021/07/22 00:47:15;;;;;;;12.50;9.50;;;15.10;64.10;;;;;;4995483;28;20453;-77
2021/07/22 00:49:44;;;;;;;12.20;9.83;;;15.00;64.70;;;;;;4985488;28;20452;-77
2021/07/22 00:52:11;;;;;;;10.57;9.47;;;14.90;65.20;;;;;;4990556;28;20447;-77
2021/07/22 00:54:38;;;;;;;10.40;9.40;;;14.90;65.50;;;;;;4987604;28;20467;-77
2021/07/22 00:57:05;;;;;;;10.10;9.10;;;14.80;66.00;;;;;;4986303;28;20478;-77
2021/07/22 00:59:35;;;;;;;10.30;9.33;;;14.80;66.60;;;;;;4994714;28;20479;-77
2021/07/22 01:02:03;;;;;;;11.40;10.30;;;14.70;66.90;;;;;;5007018;28;20445;-77
2021/07/22 01:04:30;;;;;;;11.10;9.90;;;14.60;67.40;;;;;;5010395;28;20449;-78
2021/07/22 01:06:59;;;;;;;11.33;10.03;;;14.60;67.70;;;;;;4995554;28;20451;-78
2021/07/22 01:09:25;;;;;;;10.90;9.90;;;14.60;67.60;;;;;;4992080;28;20449;-78
2021/07/22 01:11:52;;;;;;;10.50;8.90;;;14.70;67.40;;;;;;4993158;28;20468;-78
2021/07/22 01:14:19;;;;;;;10.30;9.30;;;14.60;67.80;;;;;;4991151;28;20459;-77
2021/07/22 01:16:47;;;;;;;9.97;9.07;;;14.60;68.20;;;;;;4992272;28;20465;-78
2021/07/22 01:19:14;;;;;;;10.13;9.13;;;14.70;67.90;;;;;;4983620;28;21162;-78
2021/07/22 01:21:42;;;;;;;12.70;9.80;;;14.70;68.10;;;;;;4988116;28;20458;-78
2021/07/22 01:24:09;;;;;;;11.40;9.20;;;14.60;68.50;;;;;;4989695;28;20819;-78
2021/07/22 01:26:36;;;;;;;12.10;9.73;;;14.60;68.50;;;;;;4986983;28;20467;-78
2021/07/22 01:29:04;;;;;;;10.90;9.83;;;14.70;68.30;;;;;;4988728;28;20452;-78
2021/07/22 01:31:31;;;;;;;12.23;10.23;;;14.60;68.60;;;;;;4990602;28;20459;-78
2021/07/22 01:33:58;;;;;;;11.50;9.47;;;14.50;69.00;;;;;;4990919;28;20473;-78
2021/07/22 01:36:25;;;;;;;11.77;10.57;;;14.50;69.30;;;;;;4990458;28;20480;-77
2021/07/22 01:38:54;;;;;;;9.87;8.87;;;14.70;68.70;;;;;;4990014;28;20949;-77
2021/07/22 01:41:21;;;;;;;11.90;10.20;;;14.70;69.00;;;;;;4987806;28;20463;-78
2021/07/22 01:43:48;;;;;;;10.97;10.00;;;14.70;69.00;;;;;;4979080;28;20559;-78
2021/07/22 01:46:20;;;;;;;10.43;9.47;;;14.70;68.80;;;;;;4992554;28;20481;-78
2021/07/22 01:48:47;;;;;;;12.97;10.57;;;14.70;69.00;;;;;;4987317;28;20482;-78
2021/07/22 01:51:15;;;;;;;11.93;10.83;;;14.70;69.50;;;;;;4979241;28;20527;-78
2021/07/22 01:53:41;;;;;;;10.97;9.87;;;14.50;69.80;;;;;;4988625;28;20456;-77
2021/07/22 01:56:09;;;;;;;11.47;10.47;;;14.40;70.50;;;;;;5002747;28;20486;-78
2021/07/22 01:58:36;;;;;;;11.80;10.60;;;14.40;70.80;;;;;;4984957;28;20452;-78
2021/07/22 02:01:03;;;;;;;12.33;10.20;;;14.40;70.70;;;;;;4980919;28;20452;-77
2021/07/22 02:03:30;;;;;;;11.60;10.53;;;14.30;71.50;;;;;;4987993;28;20467;-77
2021/07/22 02:05:56;;;;;;;12.80;11.07;;;14.30;72.60;;;;;;4986515;28;20442;-77
2021/07/22 02:08:23;;;;;;;12.17;11.00;;;14.30;72.40;;;;;;4984379;28;20444;-77
2021/07/22 02:10:50;;;;;;;11.13;10.03;;;14.20;72.80;;;;;;4986335;28;20975;-77
2021/07/22 02:13:18;;;;;;;12.37;11.07;;;14.10;73.70;;;;;;4987184;28;21013;-77
2021/07/22 02:15:45;;;;;;;12.07;10.63;;;14.10;74.10;;;;;;4986952;28;20479;-77
2021/07/22 02:18:11;;;;;;;12.00;10.80;;;14.10;74.60;;;;;;4983368;28;20454;-78
2021/07/22 02:20:38;;;;;;;11.60;10.50;;;14.20;74.40;;;;;;4981612;28;20977;-78
2021/07/22 02:23:05;;;;;;;17.20;11.10;;;14.20;74.30;;;;;;4990938;28;20457;-78
2021/07/22 02:25:32;;;;;;;12.70;10.43;;;14.10;74.70;;;;;;4987650;28;20467;-78
2021/07/22 02:27:59;;;;;;;12.17;10.97;;;14.10;75.90;;;;;;4983297;28;20957;-78
2021/07/22 02:30:27;;;;;;;15.70;10.70;;;14.00;76.00;;;;;;4985661;28;20458;-78
2021/07/22 02:32:54;;;;;;;12.20;10.77;;;14.00;76.10;;;;;;4987053;28;21226;-77
2021/07/22 02:35:20;;;;;;;11.97;10.77;;;14.10;75.80;;;;;;4987623;28;20479;-77
2021/07/22 02:37:47;;;;;;;10.57;9.57;;;14.20;74.90;;;;;;4987818;28;20457;-77
2021/07/22 02:40:15;;;;;;;12.40;11.20;;;14.30;74.70;;;;;;4984872;28;20476;-78
2021/07/22 02:42:42;;;;;;;10.07;9.03;;;14.20;75.00;;;;;;4985527;28;20442;-76
2021/07/22 02:45:10;;;;;;;13.30;10.50;;;14.30;74.40;;;;;;4981027;28;20455;-76
2021/07/22 02:47:38;;;;;;;11.80;10.37;;;14.40;74.20;;;;;;4985259;28;20445;-76
2021/07/22 02:50:06;;;;;;;12.90;11.60;;;14.30;74.30;;;;;;4986248;28;20586;-78
2021/07/22 02:52:32;;;;;;;11.90;10.80;;;14.30;74.60;;;;;;4985675;28;20480;-78
2021/07/22 02:54:59;;;;;;;13.30;10.47;;;14.30;75.10;;;;;;4996657;28;20469;-78
2021/07/22 02:57:27;;;;;;;12.53;11.23;;;14.30;74.90;;;;;;4980825;28;20502;-77
2021/07/22 02:59:56;;;;;;;12.50;11.30;;;14.30;74.70;;;;;;4983188;28;20465;-77
2021/07/22 03:02:23;;;;;;;11.77;10.70;;;14.30;74.80;;;;;;4981999;28;20440;-79
2021/07/22 03:04:51;;;;;;;13.60;11.80;;;14.30;74.60;;;;;;4986588;28;20528;-76
2021/07/22 03:07:17;;;;;;;12.47;11.13;;;14.30;74.80;;;;;;4987680;28;20457;-78
2021/07/22 03:09:44;;;;;;;12.10;10.83;;;14.30;74.90;;;;;;4990923;28;20817;-78
2021/07/22 03:12:11;;;;;;;12.27;11.07;;;14.30;74.90;;;;;;4986877;28;20469;-78
2021/07/22 03:14:38;;;;;;;12.47;10.80;;;14.30;75.00;;;;;;4985544;28;20546;-78
2021/07/22 03:17:05;;;;;;;12.03;10.77;;;14.30;75.00;;;;;;4981589;28;20480;-78
2021/07/22 03:19:32;;;;;;;15.27;11.00;;;14.30;75.10;;;;;;4987296;28;20453;-78
2021/07/22 03:22:00;;;;;;;13.30;12.00;;;14.20;75.40;;;;;;4981311;28;20448;-77
2021/07/22 03:24:27;;;;;;;13.77;10.93;;;14.20;75.70;;;;;;4987230;28;20483;-77
2021/07/22 03:26:53;;;;;;;12.53;10.70;;;14.10;76.00;;;;;;4985513;28;20559;-77
2021/07/22 03:29:20;;;;;;;12.00;10.90;;;14.20;76.20;;;;;;4996336;28;20453;-77
2021/07/22 03:31:47;;;;;;;11.83;10.70;;;14.10;76.30;;;;;;4989694;28;20446;-77
2021/07/22 03:34:14;;;;;;;15.80;12.67;;;14.00;77.30;;;;;;4992097;28;20561;-77
2021/07/22 03:36:41;;;;;;;12.90;11.60;;;13.90;78.70;;;;;;4986691;28;20468;-78
2021/07/22 03:39:09;;;;;;;12.30;11.20;;;13.80;79.00;;;;;;4982125;28;20521;-77
2021/07/22 03:41:35;;;;;;;12.80;11.50;;;13.80;79.20;;;;;;4981270;28;20449;-78
2021/07/22 03:44:02;;;;;;;12.07;11.00;;;13.90;78.80;;;;;;4976669;28;20966;-77
2021/07/22 03:46:29;;;;;;;12.83;11.40;;;13.90;78.50;;;;;;4995190;28;20900;-78
2021/07/22 03:48:56;;;;;;;12.97;11.27;;;14.00;78.20;;;;;;5004956;28;20466;-78
2021/07/22 03:51:22;;;;;;;12.63;11.33;;;14.00;78.00;;;;;;5011813;28;20465;-78
2021/07/22 03:53:49;;;;;;;11.70;10.60;;;14.00;77.80;;;;;;4995388;28;20558;-77
2021/07/22 03:56:17;;;;;;;12.27;10.07;;;14.10;77.40;;;;;;4985180;28;21166;-78
2021/07/22 03:58:44;;;;;;;13.33;11.93;;;14.10;77.60;;;;;;4985021;28;20469;-77
2021/07/22 04:01:11;;;;;;;11.60;10.50;;;14.20;77.40;;;;;;4987223;28;20451;-77
2021/07/22 04:03:38;;;;;;;14.73;12.27;;;14.20;77.40;;;;;;4985186;28;20471;-77
2021/07/22 04:06:05;;;;;;;12.03;10.57;;;14.20;77.50;;;;;;4985840;28;20450;-78
2021/07/22 04:08:31;;;;;;;13.47;11.27;;;14.20;78.30;;;;;;4977212;28;20485;-79
2021/07/22 04:11:01;;;;;;;11.60;10.00;;;14.30;77.30;;;;;;4980957;28;20478;-78
2021/07/22 04:13:29;;;;;;;12.23;11.13;;;14.40;77.30;;;;;;4983278;28;20529;-79
2021/07/22 04:15:56;;;;;;;11.70;10.57;;;14.70;75.90;;;;;;4986405;28;20479;-78
2021/07/22 04:18:23;;;;;;;13.17;10.47;;;14.90;74.00;;;;;;4986784;28;20451;-78
2021/07/22 04:20:49;;;;;;;11.47;10.47;;;15.20;73.20;;;;;;4985330;28;20447;-78
2021/07/22 04:23:16;;;;;;;11.97;10.83;;;15.40;72.10;;;;;;4984906;28;20451;-79
2021/07/22 04:25:43;;;;;;;11.77;10.60;;;15.60;71.40;;;;;;4985825;28;20467;-78
2021/07/22 04:28:09;;;;;;;11.00;9.90;;;15.70;70.70;;;;;;4986121;28;20995;-78
2021/07/22 04:30:39;;;;;;;12.10;9.70;;;15.90;70.00;;;;;;4983298;28;20525;-78
2021/07/22 04:33:06;;;;;;;10.70;9.63;;;16.00;69.10;;;;;;4993799;28;20455;-78
2021/07/22 04:35:32;;;;;;;11.70;10.07;;;16.20;68.70;;;;;;4988964;28;20485;-78
2021/07/22 04:38:00;;;;;;;10.30;9.20;;;16.50;67.80;;;;;;4985238;28;21895;-78
2021/07/22 04:40:27;;;;;;;11.03;9.97;;;16.60;67.10;;;;;;4988059;28;20491;-78
2021/07/22 04:42:54;;;;;;;10.37;9.50;;;16.40;67.10;;;;;;4993782;28;20448;-78
2021/07/22 04:45:21;;;;;;;10.70;9.60;;;16.70;67.20;;;;;;4986203;28;20451;-77
2021/07/22 04:47:49;;;;;;;11.17;10.00;;;16.60;66.60;;;;;;4985088;28;20484;-77
2021/07/22 04:50:15;;;;;;;10.03;9.20;;;16.90;66.40;;;;;;4976879;28;20455;-77
2021/07/22 04:52:42;;;;;;;10.30;9.30;;;16.90;66.00;;;;;;4984538;28;20453;-78
2021/07/22 04:55:10;;;;;;;9.97;9.07;;;17.10;65.00;;;;;;4985053;28;20477;-78
2021/07/22 04:57:37;;;;;;;10.30;9.30;;;17.30;65.30;;;;;;4979867;28;20491;-80
2021/07/22 05:00:04;;;;;;;10.03;8.93;;;17.50;64.40;;;;;;4984873;28;23055;-77
2021/07/22 05:02:31;;;;;;;10.10;9.10;;;17.80;63.80;;;;;;4978487;28;20534;-78
2021/07/22 05:04:59;;;;;;;10.67;9.67;;;18.00;64.10;;;;;;4983897;28;21303;-78
2021/07/22 05:07:27;;;;;;;9.43;8.53;;;18.40;63.30;;;;;;4982328;28;20444;-78
2021/07/22 05:09:54;;;;;;;9.80;8.77;;;18.10;62.20;;;;;;4986854;28;20448;-78
2021/07/22 05:12:20;;;;;;;10.07;9.17;;;17.80;63.10;;;;;;4987386;28;20465;-78
2021/07/22 05:14:47;;;;;;;10.50;9.50;;;17.90;62.80;;;;;;4994974;28;20523;-78
2021/07/22 05:17:14;;;;;;;9.23;8.43;;;17.60;63.00;;;;;;4999300;28;20490;-79
2021/07/22 05:19:41;;;;;;;10.03;8.87;;;17.50;63.30;;;;;;4993028;28;21297;-77
2021/07/22 05:22:09;;;;;;;9.43;8.50;;;17.80;63.20;;;;;;4989663;28;20570;-77
2021/07/22 05:24:36;;;;;;;9.77;8.87;;;18.30;62.60;;;;;;4985470;28;20970;-77
2021/07/22 05:27:03;;;;;;;8.90;8.00;;;18.10;62.20;;;;;;4990329;28;20484;-78
2021/07/22 05:29:30;;;;;;;11.13;8.40;;;18.10;62.50;;;;;;4988494;28;20460;-78
2021/07/22 05:31:56;;;;;;;10.60;9.67;;;18.10;62.20;;;;;;4986823;28;20806;-78
2021/07/22 05:34:23;;;;;;;10.50;9.40;;;18.10;62.40;;;;;;4982329;28;20896;-77
2021/07/22 05:36:50;;;;;;;22.40;10.50;;;18.20;62.00;;;;;;4989672;28;20693;-80
2021/07/22 05:39:18;;;;;;;9.77;8.77;;;18.60;61.80;;;;;;4991634;28;20995;-79
2021/07/22 05:41:45;;;;;;;10.40;8.97;;;18.70;60.90;;;;;;4987908;28;20539;-79
2021/07/22 05:44:12;;;;;;;9.33;8.43;;;18.70;61.20;;;;;;4990137;28;20463;-79
2021/07/22 05:46:39;;;;;;;15.67;9.90;;;18.90;60.80;;;;;;4986697;28;20468;-80
2021/07/22 05:49:06;;;;;;;11.40;9.10;;;18.80;60.70;;;;;;4992245;28;20452;-80
2021/07/22 05:51:33;;;;;;;9.30;8.47;;;19.10;60.80;;;;;;4992688;28;20484;-79
2021/07/22 05:54:00;;;;;;;12.57;9.40;;;19.00;60.20;;;;;;4990890;28;20781;-80
2021/07/22 05:56:29;;;;;;;14.37;8.73;;;18.90;60.20;;;;;;4986232;28;20820;-79
2021/07/22 05:58:56;;;;;;;11.40;8.73;;;19.30;60.90;;;;;;4989620;28;20975;-79
2021/07/22 06:01:23;;;;;;;9.63;8.73;;;19.10;59.90;;;;;;4986186;28;20492;-79
2021/07/22 06:03:50;;;;;;;10.87;9.60;;;19.00;60.90;;;;;;4994396;28;20456;-79
2021/07/22 06:06:17;;;;;;;9.20;8.33;;;19.10;60.10;;;;;;4992714;28;20486;-79
2021/07/22 06:08:43;;;;;;;10.33;9.43;;;19.20;60.20;;;;;;4993230;28;20491;-78
2021/07/22 06:11:12;;;;;;;8.23;7.53;;;19.10;60.60;;;;;;4992013;28;20543;-80
2021/07/22 06:13:41;;;;;;;9.33;8.13;;;19.70;60.80;;;;;;4985435;28;20461;-79
2021/07/22 06:16:10;;;;;;;9.37;8.47;;;19.50;59.90;;;;;;4990809;28;20523;-79
2021/07/22 06:18:37;;;;;;;9.70;7.80;;;19.10;59.90;;;;;;4986342;28;20491;-80
2021/07/22 06:21:03;;;;;;;9.57;8.67;;;19.10;60.40;;;;;;4991884;28;20543;-78
2021/07/22 06:23:30;;;;;;;8.80;7.93;;;19.50;60.00;;;;;;4992956;28;20958;-79
2021/07/22 06:25:57;;;;;;;8.57;7.63;;;19.80;59.60;;;;;;4990875;28;20562;-79
2021/07/22 06:28:24;;;;;;;8.87;8.00;;;19.80;59.20;;;;;;4982777;28;20503;-79
2021/07/22 06:30:53;;;;;;;8.97;8.17;;;19.30;59.20;;;;;;4990389;28;20445;-80
2021/07/22 06:33:20;;;;;;;9.43;8.53;;;18.80;60.40;;;;;;4994914;28;20445;-78
2021/07/22 06:35:50;;;;;;;11.23;9.03;;;19.00;60.90;;;;;;4991846;28;20543;-83
2021/07/22 06:38:17;;;;;;;9.80;8.80;;;19.10;60.70;;;;;;4985649;28;20959;-79
2021/07/22 06:40:44;;;;;;;9.70;8.80;;;19.20;60.60;;;;;;4994314;28;20470;-79
2021/07/22 06:43:11;;;;;;;8.70;8.00;;;19.30;60.80;;;;;;5004110;28;20492;-80
2021/07/22 06:45:39;;;;;;;8.50;7.80;;;19.20;60.20;;;;;;5013175;28;20455;-79
2021/07/22 06:48:08;;;;;;;10.20;9.20;;;19.30;60.40;;;;;;5000714;28;20514;-79
2021/07/22 06:50:36;;;;;;;9.73;8.30;;;19.40;60.80;;;;;;5007449;28;20462;-79
2021/07/22 06:53:03;;;;;;;10.37;8.77;;;19.20;60.30;;;;;;4997547;28;20536;-82
2021/07/22 06:55:30;;;;;;;10.23;9.13;;;19.30;60.30;;;;;;4997874;28;20476;-82
2021/07/22 06:57:57;;;;;;;10.23;9.10;;;19.30;59.90;;;;;;4991226;28;20457;-78
2021/07/22 07:00:24;;;;;;;10.00;9.20;;;18.90;60.30;;;;;;4989661;28;20547;-81
2021/07/22 07:02:51;;;;;;;9.73;8.93;;;19.10;60.60;;;;;;4997930;28;20211;-80
2021/07/22 07:05:19;;;;;;;8.80;8.00;;;19.20;60.30;;;;;;4994215;28;20466;-78
2021/07/22 07:07:46;;;;;;;11.27;10.17;;;19.60;60.50;;;;;;4987569;28;21067;-82
2021/07/22 07:10:13;;;;;;;9.37;8.33;;;19.80;60.10;;;;;;4990820;28;20614;-82
2021/07/22 07:12:40;;;;;;;9.90;8.37;;;19.60;59.80;;;;;;4989238;28;20912;-81
2021/07/22 07:15:08;;;;;;;10.47;9.50;;;19.70;60.30;;;;;;4987904;28;20453;-78
2021/07/22 07:17:34;;;;;;;10.07;9.07;;;19.80;59.80;;;;;;4991706;28;20477;-84
2021/07/22 07:20:01;;;;;;;9.57;8.70;;;19.60;60.30;;;;;;4987343;28;20512;-82
2021/07/22 07:22:29;;;;;;;10.00;8.97;;;19.70;60.10;;;;;;4993025;28;20460;-80
2021/07/22 07:24:56;;;;;;;13.37;9.80;;;20.10;60.00;;;;;;4989281;28;20536;-77
2021/07/22 07:27:23;;;;;;;11.97;8.90;;;19.90;59.40;;;;;;4985366;28;20452;-79
2021/07/22 07:29:50;;;;;;;12.27;8.60;;;20.10;60.30;;;;;;4984542;28;20540;-79
2021/07/22 07:32:16;;;;;;;10.17;9.17;;;20.30;60.10;;;;;;4987678;28;21218;-77
2021/07/22 07:34:43;;;;;;;9.47;8.67;;;20.30;59.90;;;;;;4982314;28;20449;-77
2021/07/22 07:37:10;;;;;;;10.10;9.20;;;20.20;59.50;;;;;;4985711;28;20473;-78
2021/07/22 07:39:38;;;;;;;11.00;10.00;;;20.20;59.80;;;;;;4980004;28;20903;-79
2021/07/22 07:42:05;;;;;;;10.47;9.60;;;20.50;60.20;;;;;;4988072;28;20452;-78
2021/07/22 07:44:32;;;;;;;10.43;8.37;;;20.70;60.00;;;;;;4985401;28;20458;-80
2021/07/22 07:46:59;;;;;;;12.63;9.63;;;21.00;59.40;;;;;;4981774;28;20448;-77
2021/07/22 07:49:25;;;;;;;9.30;8.43;;;20.80;58.90;;;;;;4981837;28;21055;-76
2021/07/22 07:51:52;;;;;;;9.50;8.53;;;20.80;59.00;;;;;;4986951;28;20498;-76
2021/07/22 07:54:23;;;;;;;12.03;9.23;;;21.00;59.30;;;;;;4983713;28;21047;-76
2021/07/22 07:56:51;;;;;;;9.10;8.30;;;20.90;59.20;;;;;;4987770;28;20468;-76
2021/07/22 07:59:18;;;;;;;9.20;8.30;;;21.20;59.50;;;;;;4984319;28;20475;-76
2021/07/22 08:01:45;;;;;;;9.77;8.90;;;21.50;59.20;;;;;;4977850;28;20492;-76
2021/07/22 08:04:12;;;;;;;11.70;9.33;;;21.50;58.60;;;;;;4981072;28;20550;-74
2021/07/22 08:06:39;;;;;;;9.70;8.80;;;21.50;58.70;;;;;;4981596;28;20460;-76
2021/07/22 08:09:06;;;;;;;9.53;8.70;;;21.70;58.60;;;;;;4984270;28;20500;-79
2021/07/22 08:11:33;;;;;;;9.57;8.77;;;21.50;58.50;;;;;;4979241;28;21566;-74
2021/07/22 08:14:01;;;;;;;12.00;9.80;;;21.90;58.70;;;;;;4980694;28;20963;-73
2021/07/22 08:16:27;;;;;;;10.20;9.30;;;21.50;57.90;;;;;;4977697;28;20968;-74
2021/07/22 08:18:54;;;;;;;10.07;9.00;;;21.40;58.60;;;;;;4981238;28;20468;-75
2021/07/22 08:21:21;;;;;;;10.03;9.03;;;21.60;58.40;;;;;;4984879;28;20479;-74
2021/07/22 08:23:48;;;;;;;9.60;8.80;;;21.70;58.60;;;;;;4983231;28;20932;-74
2021/07/22 08:26:15;;;;;;;9.90;8.90;;;21.90;58.60;;;;;;4980679;28;20464;-73
2021/07/22 08:28:42;;;;;;;11.27;10.17;;;21.80;58.20;;;;;;4983623;28;20971;-74
2021/07/22 08:31:10;;;;;;;10.17;9.20;;;21.60;58.00;;;;;;4981191;28;20774;-75
2021/07/22 08:33:37;;;;;;;10.37;9.30;;;21.80;58.00;;;;;;4983508;28;20548;-75
2021/07/22 08:36:04;;;;;;;11.40;10.20;;;21.90;57.90;;;;;;4980290;28;20460;-76
2021/07/22 08:38:31;;;;;;;10.50;9.23;;;21.90;58.30;;;;;;4988093;28;21284;-76
2021/07/22 08:40:59;;;;;;;9.50;8.70;;;22.20;58.00;;;;;;4981718;28;20488;-79
2021/07/22 08:43:27;;;;;;;10.80;9.80;;;22.40;58.30;;;;;;4986527;28;20448;-76
2021/07/22 08:45:55;;;;;;;10.63;9.70;;;22.50;57.20;;;;;;4983330;28;20460;-76
2021/07/22 08:48:23;;;;;;;11.40;10.30;;;22.50;56.90;;;;;;4986135;28;20536;-75
2021/07/22 08:50:50;;;;;;;12.73;10.60;;;22.40;57.00;;;;;;4980182;28;20463;-74
2021/07/22 08:53:20;;;;;;;11.13;9.90;;;22.60;57.00;;;;;;4991885;28;20459;-75
2021/07/22 08:55:48;;;;;;;11.23;10.13;;;22.70;56.50;;;;;;4986196;28;20474;-76
2021/07/22 08:58:15;;;;;;;11.27;10.20;;;22.70;56.50;;;;;;4987513;28;20474;-77
2021/07/22 09:00:43;;;;;;;12.17;10.07;;;22.70;56.80;;;;;;4988125;28;20452;-76
2021/07/22 09:03:13;;;;;;;12.33;9.80;;;22.50;57.00;;;;;;4987967;28;20979;-76
2021/07/22 09:05:41;;;;;;;11.53;10.37;;;22.20;56.90;;;;;;4986154;28;20443;-76
2021/07/22 09:08:08;;;;;;;13.27;10.00;;;21.90;57.40;;;;;;4986647;28;20559;-76
2021/07/22 09:10:34;;;;;;;12.37;10.50;;;22.20;57.40;;;;;;4992119;28;20470;-76
2021/07/22 09:13:01;;;;;;;10.83;9.90;;;22.40;57.10;;;;;;4990286;28;20456;-77
2021/07/22 09:15:31;;;;;;;10.83;9.87;;;22.60;57.10;;;;;;4984376;28;21250;-76
2021/07/22 09:17:58;;;;;;;9.87;8.97;;;22.80;57.10;;;;;;4983545;28;20464;-77
2021/07/22 09:20:30;;;;;;;11.23;10.07;;;23.20;57.00;;;;;;4982404;28;20761;-75
2021/07/22 09:23:01;;;;;;;10.70;9.60;;;23.40;56.90;;;;;;4982604;28;20476;-76
2021/07/22 09:25:39;;;;;;;10.60;9.63;;;23.60;56.80;;;;;;4986149;28;20202;-78
2021/07/22 09:28:06;;;;;;;10.70;9.70;;;23.60;56.30;;;;;;4983806;28;20447;-77
2021/07/22 09:30:34;;;;;;;10.07;9.20;;;23.80;56.10;;;;;;4984361;28;20543;-77
2021/07/22 09:33:02;;;;;;;10.30;9.40;;;23.70;56.10;;;;;;4984122;28;20472;-76
2021/07/22 09:35:29;;;;;;;9.63;8.70;;;23.70;56.30;;;;;;4985226;28;20455;-76
2021/07/22 09:37:58;;;;;;;10.40;9.53;;;23.70;56.60;;;;;;4983803;28;20579;-77
2021/07/22 09:40:36;;;;;;;10.70;9.70;;;23.70;56.40;;;;;;4991358;28;20916;-77
2021/07/22 09:43:03;;;;;;;10.37;9.33;;;23.80;56.40;;;;;;4989881;28;20447;-78
2021/07/22 09:45:31;;;;;;;10.23;9.27;;;23.80;56.30;;;;;;4991692;28;20543;-77
2021/07/22 09:48:08;;;;;;;11.73;9.90;;;23.70;56.10;;;;;;4987473;28;20449;-78
2021/07/22 09:50:40;;;;;;;12.10;10.23;;;23.70;56.20;;;;;;4987273;28;20485;-79
2021/07/22 09:53:08;;;;;;;11.23;10.13;;;23.80;56.60;;;;;;4996424;28;20451;-78
2021/07/22 09:55:38;;;;;;;11.03;9.83;;;23.80;55.90;;;;;;5001830;28;20471;-77
2021/07/22 09:58:07;;;;;;;10.27;9.30;;;23.60;55.80;;;;;;4987817;28;20503;-78
2021/07/22 10:00:36;;;;;;;11.47;10.40;;;23.60;55.60;;;;;;5002808;28;20538;-78
2021/07/22 10:03:04;;;;;;;12.33;9.33;;;23.70;55.10;;;;;;4995345;28;20467;-79
2021/07/22 10:05:34;;;;;;;11.50;9.97;;;23.70;54.80;;;;;;4990478;28;20509;-78
2021/07/22 10:08:01;;;;;;;10.88;9.77;;;23.70;55.00;;;;;;4988887;28;20451;-77
2021/07/22 10:10:29;;;;;;;10.23;9.30;;;23.80;54.50;;;;;;4984213;28;20205;-78
2021/07/22 10:12:59;;;;;;;9.97;9.10;;;24.20;54.40;;;;;;4983257;28;20531;-77
2021/07/22 10:15:28;;;;;;;10.43;9.50;;;24.30;53.90;;;;;;4983545;28;20543;-77
2021/07/22 10:17:56;;;;;;;10.23;9.10;;;24.40;53.90;;;;;;4983752;28;20476;-77
2021/07/22 10:20:27;;;;;;;10.87;9.87;;;24.70;54.20;;;;;;4983504;28;20454;-77
2021/07/22 10:22:53;;;;;;;11.80;9.50;;;24.80;54.00;;;;;;4981184;28;20464;-77
2021/07/22 10:25:20;;;;;;;11.73;10.43;;;24.90;54.20;;;;;;4980513;28;20520;-77
2021/07/22 10:27:48;;;;;;;11.10;10.10;;;24.80;53.90;;;;;;4986855;28;20460;-77
2021/07/22 10:30:18;;;;;;;10.30;9.40;;;24.70;53.50;;;;;;4986929;28;20468;-78
2021/07/22 10:32:48;;;;;;;10.47;9.27;;;24.60;53.20;;;;;;4986815;28;20462;-78
2021/07/22 10:35:17;;;;;;;10.73;8.87;;;24.50;53.00;;;;;;4986556;28;20973;-78
2021/07/22 10:38:03;;;;;;;9.47;8.40;;;24.60;51.70;;;;;;4988895;28;20459;-78
2021/07/22 10:40:44;;;;;;;10.27;9.47;;;24.60;51.10;;;;;;4986083;28;20432;-78
2021/07/22 10:43:35;;;;;;;10.90;9.63;;;24.80;51.60;;;;;;4986185;28;20465;-78
2021/07/22 10:46:04;;;;;;;11.83;10.13;;;24.70;51.70;;;;;;4980580;28;20433;-78
2021/07/22 10:48:31;;;;;;;9.73;8.73;;;24.70;50.70;;;;;;4985803;28;20452;-79
2021/07/22 10:51:13;;;;;;;10.23;9.23;;;24.90;51.10;;;;;;4984305;28;20483;-78
2021/07/22 10:53:42;;;;;;;10.10;9.10;;;25.00;50.70;;;;;;4983511;28;20456;-77
2021/07/22 10:56:10;;;;;;;9.90;8.90;;;25.20;51.30;;;;;;4984507;28;20480;-78
2021/07/22 10:59:01;;;;;;;10.83;9.90;;;24.90;50.90;;;;;;4982574;28;20476;-77
2021/07/22 11:01:57;;;;;;;10.97;10.07;;;24.80;51.10;;;;;;4976801;28;20560;-78
2021/07/22 11:04:43;;;;;;;11.53;10.50;;;24.80;51.60;;;;;;4986313;28;20519;-78
2021/07/22 11:07:27;;;;;;;14.10;10.13;;;24.90;51.30;;;;;;4984748;28;20453;-77
2021/07/22 11:09:58;;;;;;;11.53;10.33;;;24.80;51.40;;;;;;4978007;28;20975;-78
2021/07/22 11:12:54;;;;;;;11.03;9.77;;;25.00;51.70;;;;;;4978248;28;20476;-78
2021/07/22 11:15:57;;;;;;;11.37;10.10;;;25.20;51.20;;;;;;4987909;28;20444;-78
2021/07/22 11:18:51;;;;;;;10.27;9.30;;;25.20;51.30;;;;;;4979398;28;20972;-78
2021/07/22 11:21:20;;;;;;;10.63;9.63;;;25.20;50.30;;;;;;4980038;28;20444;-79
2021/07/22 11:24:06;;;;;;;10.73;9.63;;;25.10;50.30;;;;;;4985188;28;20460;-79
2021/07/22 11:26:35;;;;;;;10.15;9.07;;;25.10;51.10;;;;;;4983107;28;20548;-80
2021/07/22 11:29:03;;;;;;;8.77;7.93;;;25.30;50.90;;;;;;4988647;28;20276;-80
2021/07/22 11:31:31;;;;;;;11.13;9.53;;;25.30;49.70;;;;;;4997139;28;20568;-79
2021/07/22 11:34:03;;;;;;;8.97;8.17;;;25.20;50.30;;;;;;4994083;28;20444;-77
2021/07/22 11:36:31;;;;;;;11.87;8.70;;;25.30;49.50;;;;;;4982813;28;20473;-80
2021/07/22 11:38:58;;;;;;;11.30;8.60;;;25.40;49.10;;;;;;4998606;28;20468;-80
2021/07/22 11:41:26;;;;;;;8.93;8.23;;;25.30;49.20;;;;;;4993526;28;20451;-79
2021/07/22 11:43:55;;;;;;;8.37;7.63;;;25.40;49.50;;;;;;4983403;28;20510;-79
2021/07/22 11:46:44;;;;;;;9.67;8.20;;;25.40;49.20;;;;;;4994971;28;20448;-79
2021/07/22 11:49:14;;;;;;;9.80;8.67;;;25.40;49.70;;;;;;4985538;28;20539;-79
2021/07/22 11:51:42;;;;;;;12.33;8.70;;;25.40;49.30;;;;;;4990272;28;20440;-79
2021/07/22 11:54:10;;;;;;;10.10;9.10;;;25.50;49.50;;;;;;4983459;28;20567;-79
2021/07/22 11:56:37;;;;;;;11.83;9.50;;;25.50;49.60;;;;;;4984280;28;20469;-79
2021/07/22 11:59:07;;;;;;;10.07;9.10;;;25.50;49.30;;;;;;4986476;28;20487;-79
2021/07/22 12:01:34;;;;;;;11.80;9.20;;;25.70;49.50;;;;;;4988707;28;20503;-79
2021/07/22 12:04:01;;;;;;;9.70;8.80;;;25.80;49.70;;;;;;4984478;28;20472;-79
2021/07/22 12:06:30;;;;;;;9.13;8.33;;;25.70;50.00;;;;;;4989976;28;20777;-80
2021/07/22 12:09:02;;;;;;;12.33;9.30;;;25.60;49.60;;;;;;4984984;28;20468;-79
2021/07/22 12:11:29;;;;;;;11.03;9.10;;;25.60;49.20;;;;;;4985566;28;20460;-78
2021/07/22 12:13:57;;;;;;;10.77;8.90;;;25.50;49.30;;;;;;4983164;28;20547;-79
2021/07/22 12:16:25;;;;;;;8.83;8.03;;;25.40;49.30;;;;;;4979002;28;20967;-78
2021/07/22 12:18:54;;;;;;;9.70;8.83;;;25.40;49.40;;;;;;4981558;28;21099;-77
2021/07/22 12:21:22;;;;;;;10.18;9.18;;;25.40;49.00;;;;;;4981762;28;22100;-78
2021/07/22 12:23:50;;;;;;;9.87;9.07;;;25.30;49.30;;;;;;4983047;28;20713;-79
2021/07/22 12:26:18;;;;;;;10.13;9.23;;;25.40;48.90;;;;;;4979236;28;20576;-75
2021/07/22 12:28:45;;;;;;;10.63;9.63;;;25.50;49.40;;;;;;4984176;28;20807;-76
2021/07/22 12:31:20;;;;;;;10.60;9.50;;;25.50;49.20;;;;;;4978869;28;20456;-76
2021/07/22 12:33:57;;;;;;;9.40;8.50;;;25.30;49.20;;;;;;4979165;28;20209;-77
2021/07/22 12:36:25;;;;;;;9.30;8.30;;;25.40;49.50;;;;;;4978704;28;20452;-77
2021/07/22 12:39:13;;;;;;;9.67;8.67;;;25.70;49.90;;;;;;4981176;28;20468;-77
2021/07/22 12:41:41;;;;;;;8.70;8.00;;;26.00;49.40;;;;;;4987712;28;20448;-78